Ice Star — OUJK2 — position and weather

sailwx.info

Track history (hours):
 
Tides and Currents Weather Stations Pressure Air Temp Water Temp Dewpoint Dewpoint Depression Visibility Wind Speed Wind Dir Waves Ship Positions

Ice Star

Last reported at 2017-Apr-29 22:30 UTC. Time now 2017-Apr-30 20:48 UTC.
Position N 01°15' E 104°10'.

Length 367 m; draft 15.3 m.

Type: Cargo ship. MMSI: 220596000.

Date/timePositionNaut miles runAvg speedWind from/ knotsBaromVisibWave heightAir tempDewpointWater temp
2017-Apr-29 22:30N 01°15' E 104°10'1018.9
2017-Apr-29 22:00N 01°14' E 104°00'714.5
2017-Apr-29 21:30N 01°12' E 103°53'5 9.4
2017-Apr-29 21:00N 01°12' E 103°49'4 8.1
2017-Apr-29 20:30N 01°15' E 103°46'2 3.5
2017-Apr-29 20:00N 01°17' E 103°45'0 0.2
2017-Apr-29 19:30N 01°17' E 103°45'0 0.0
2017-Apr-29 18:59N 01°17' E 103°45'0 0.0
2017-Apr-29 18:29N 01°17' E 103°45'0 0.0
2017-Apr-29 17:59N 01°17' E 103°45'0 0.0
2017-Apr-29 17:29N 01°17' E 103°45'0 0.0
2017-Apr-29 16:59N 01°17' E 103°45'0 0.0
2017-Apr-29 16:29N 01°17' E 103°45'0 0.0
2017-Apr-29 15:59N 01°17' E 103°45'0 0.0
2017-Apr-29 15:29N 01°17' E 103°45'0 0.0
2017-Apr-29 14:59N 01°17' E 103°45'0 0.0
2017-Apr-29 13:59N 01°17' E 103°45'0 0.0
2017-Apr-29 13:29N 01°17' E 103°45'0 0.0
2017-Apr-29 12:59N 01°17' E 103°45'0 0.0
2017-Apr-29 12:29N 01°17' E 103°45'0 0.0
2017-Apr-29 11:59N 01°17' E 103°45'0 0.0
2017-Apr-29 11:23N 01°17' E 103°45'0 0.0
2017-Apr-29 10:59N 01°17' E 103°45'0 0.1
2017-Apr-29 10:30N 01°17' E 103°45'0 0.1
2017-Apr-29 09:59N 01°17' E 103°45'0 0.0
2017-Apr-29 09:29N 01°17' E 103°45'0 0.0
2017-Apr-29 08:59N 01°17' E 103°45'0 0.0
2017-Apr-29 08:29N 01°17' E 103°45'0 0.0
2017-Apr-29 07:59N 01°17' E 103°45'0 0.0
2017-Apr-29 07:29N 01°17' E 103°45'0 0.0
2017-Apr-29 06:59N 01°17' E 103°45'0 0.0
2017-Apr-29 06:29N 01°17' E 103°45'0 0.0
2017-Apr-29 05:56N 01°17' E 103°45'0 0.0
2017-Apr-29 05:29N 01°17' E 103°45'0 0.0
2017-Apr-29 04:59N 01°17' E 103°45'0 0.0
2017-Apr-29 04:29N 01°17' E 103°45'0 0.0
2017-Apr-29 03:59N 01°17' E 103°45'0 0.0
2017-Apr-29 03:29N 01°17' E 103°45'0 0.0
2017-Apr-29 02:56N 01°17' E 103°45'0 0.0
2017-Apr-29 02:29N 01°17' E 103°45'0 0.0
2017-Apr-29 01:59N 01°17' E 103°45'0 0.0
2017-Apr-29 01:29N 01°17' E 103°45'0 0.0
2017-Apr-29 00:59N 01°17' E 103°45'0 0.0
2017-Apr-29 00:29N 01°17' E 103°45'0 0.0
2017-Apr-28 23:59N 01°17' E 103°45'0 0.0
2017-Apr-28 23:29N 01°17' E 103°45'0 0.0
2017-Apr-28 22:59N 01°17' E 103°45'0 0.0
2017-Apr-28 22:29N 01°17' E 103°45'0 0.0
2017-Apr-28 21:58N 01°17' E 103°45'0 0.0
2017-Apr-28 21:28N 01°17' E 103°45'0 0.0
2017-Apr-28 20:50N 01°17' E 103°45'0 0.0
2017-Apr-28 20:29N 01°17' E 103°45'0 0.0
2017-Apr-28 19:57N 01°17' E 103°45'0 0.3
2017-Apr-28 19:31N 01°17' E 103°45'1 3.0
2017-Apr-28 19:00N 01°16' E 103°46'3 6.2
2017-Apr-28 18:31N 01°14' E 103°43'4 6.9
2017-Apr-28 18:00N 01°13' E 103°40'3 6.8
2017-Apr-28 17:30N 01°12' E 103°37'3 6.5
2017-Apr-28 17:00N 01°11' E 103°34'4 8.2
2017-Apr-28 16:30N 01°09' E 103°30'5 9.3
2017-Apr-28 16:00N 01°11' E 103°26'510.0
2017-Apr-28 15:30N 01°14' E 103°22'510.1
2017-Apr-28 14:59N 01°18' E 103°18'4110.2
2017-Apr-28 10:54N 01°41' E 102°43'2010.3
2017-Apr-28 08:57N 01°49' E 102°25'510.1
2017-Apr-28 08:29N 01°51' E 102°21'  
Track history (hours):
 
Tides and Currents Weather Stations Pressure Air Temp Water Temp Dewpoint Dewpoint Depression Visibility Wind Speed Wind Dir Waves Ship Positions

Ice Star

Last reported at 2017-Apr-29 22:30 UTC. Time now 2017-Apr-30 20:48 UTC.
Position N 01°15' E 104°10'.

Length 367 m; draft 15.3 m.

Type: Cargo ship. MMSI: 220596000.

Date/timePositionNaut miles runAvg speedWind from/ knotsBaromVisibWave heightAir tempDewpointWater temp
2017-Apr-29 22:30N 01°15' E 104°10'1018.9
2017-Apr-29 22:00N 01°14' E 104°00'714.5
2017-Apr-29 21:30N 01°12' E 103°53'5 9.4
2017-Apr-29 21:00N 01°12' E 103°49'4 8.1
2017-Apr-29 20:30N 01°15' E 103°46'2 3.5
2017-Apr-29 20:00N 01°17' E 103°45'0 0.2
2017-Apr-29 19:30N 01°17' E 103°45'0 0.0
2017-Apr-29 18:59N 01°17' E 103°45'0 0.0
2017-Apr-29 18:29N 01°17' E 103°45'0 0.0
2017-Apr-29 17:59N 01°17' E 103°45'0 0.0
2017-Apr-29 17:29N 01°17' E 103°45'0 0.0
2017-Apr-29 16:59N 01°17' E 103°45'0 0.0
2017-Apr-29 16:29N 01°17' E 103°45'0 0.0
2017-Apr-29 15:59N 01°17' E 103°45'0 0.0
2017-Apr-29 15:29N 01°17' E 103°45'0 0.0
2017-Apr-29 14:59N 01°17' E 103°45'0 0.0
2017-Apr-29 13:59N 01°17' E 103°45'0 0.0
2017-Apr-29 13:29N 01°17' E 103°45'0 0.0
2017-Apr-29 12:59N 01°17' E 103°45'0 0.0
2017-Apr-29 12:29N 01°17' E 103°45'0 0.0
2017-Apr-29 11:59N 01°17' E 103°45'0 0.0
2017-Apr-29 11:23N 01°17' E 103°45'0 0.0
2017-Apr-29 10:59N 01°17' E 103°45'0 0.1
2017-Apr-29 10:30N 01°17' E 103°45'0 0.1
2017-Apr-29 09:59N 01°17' E 103°45'0 0.0
2017-Apr-29 09:29N 01°17' E 103°45'0 0.0
2017-Apr-29 08:59N 01°17' E 103°45'0 0.0
2017-Apr-29 08:29N 01°17' E 103°45'0 0.0
2017-Apr-29 07:59N 01°17' E 103°45'0 0.0
2017-Apr-29 07:29N 01°17' E 103°45'0 0.0
2017-Apr-29 06:59N 01°17' E 103°45'0 0.0
2017-Apr-29 06:29N 01°17' E 103°45'0 0.0
2017-Apr-29 05:56N 01°17' E 103°45'0 0.0
2017-Apr-29 05:29N 01°17' E 103°45'0 0.0
2017-Apr-29 04:59N 01°17' E 103°45'0 0.0
2017-Apr-29 04:29N 01°17' E 103°45'0 0.0
2017-Apr-29 03:59N 01°17' E 103°45'0 0.0
2017-Apr-29 03:29N 01°17' E 103°45'0 0.0
2017-Apr-29 02:56N 01°17' E 103°45'0 0.0
2017-Apr-29 02:29N 01°17' E 103°45'0 0.0
2017-Apr-29 01:59N 01°17' E 103°45'0 0.0
2017-Apr-29 01:29N 01°17' E 103°45'0 0.0
2017-Apr-29 00:59N 01°17' E 103°45'0 0.0
2017-Apr-29 00:29N 01°17' E 103°45'0 0.0
2017-Apr-28 23:59N 01°17' E 103°45'0 0.0
2017-Apr-28 23:29N 01°17' E 103°45'0 0.0
2017-Apr-28 22:59N 01°17' E 103°45'0 0.0
2017-Apr-28 22:29N 01°17' E 103°45'0 0.0
2017-Apr-28 21:58N 01°17' E 103°45'0 0.0
2017-Apr-28 21:28N 01°17' E 103°45'0 0.0
2017-Apr-28 20:50N 01°17' E 103°45'0 0.0
2017-Apr-28 20:29N 01°17' E 103°45'0 0.0
2017-Apr-28 19:57N 01°17' E 103°45'0 0.3
2017-Apr-28 19:31N 01°17' E 103°45'1 3.0
2017-Apr-28 19:00N 01°16' E 103°46'3 6.2
2017-Apr-28 18:31N 01°14' E 103°43'4 6.9
2017-Apr-28 18:00N 01°13' E 103°40'3 6.8
2017-Apr-28 17:30N 01°12' E 103°37'3 6.5
2017-Apr-28 17:00N 01°11' E 103°34'4 8.2
2017-Apr-28 16:30N 01°09' E 103°30'5 9.3
2017-Apr-28 16:00N 01°11' E 103°26'510.0
2017-Apr-28 15:30N 01°14' E 103°22'510.1
2017-Apr-28 14:59N 01°18' E 103°18'4110.2
2017-Apr-28 10:54N 01°41' E 102°43'2010.3
2017-Apr-28 08:57N 01°49' E 102°25'510.1
2017-Apr-28 08:29N 01°51' E 102°21'  

Dump ship's entire track history